Terminal Aerodrome Forecast
Issued by NWS Sterling, VA

Home | Current Version | Previous Version | Text Only | Print | Product List | Glossary On
Versions: 1 2 3 4 5 6 7 8 9 10 11 12 13 14 15 16 17 18 19 20
000
FTUS41 KLWX 041138
TAFCHO
TAF
KCHO 041138Z 0412/0512 00000KT 2SM BR OVC008
     FM041400 00000KT P6SM OVC015
     FM041600 28004KT 5SM -SHRA VCTS BKN050CB
     FM042200 32005KT P6SM BKN050
     FM050600 00000KT 2SM BR BKN250
     FM051100 00000KT P6SM BKN200=

USA.gov is the U.S. government's official web portal to all federal, state and local government web resources and services.